sensor_id;sensor_type;location;lat;lon;timestamp;pressure;altitude;pressure_sealevel;temperature;humidity
23427;BME280;41148;45.420;10.952;2022-08-25T00:01:08;100750.22;;;23.57;61.84
23427;BME280;41148;45.420;10.952;2022-08-25T00:03:35;100753.16;;;23.54;61.78
23427;BME280;41148;45.420;10.952;2022-08-25T00:06:05;100758.00;;;23.50;62.08
23427;BME280;41148;45.420;10.952;2022-08-25T00:08:33;100752.81;;;23.47;62.23
23427;BME280;41148;45.420;10.952;2022-08-25T00:11:04;100755.28;;;23.39;62.87
23427;BME280;41148;45.420;10.952;2022-08-25T00:13:32;100742.91;;;23.35;62.83
23427;BME280;41148;45.420;10.952;2022-08-25T00:16:00;100750.69;;;23.17;63.43
23427;BME280;41148;45.420;10.952;2022-08-25T00:18:27;100747.47;;;23.12;63.47
23427;BME280;41148;45.420;10.952;2022-08-25T00:20:54;100749.56;;;23.08;63.57
23427;BME280;41148;45.420;10.952;2022-08-25T00:23:22;100752.28;;;23.08;63.60
23427;BME280;41148;45.420;10.952;2022-08-25T00:25:49;100749.69;;;23.07;63.64
23427;BME280;41148;45.420;10.952;2022-08-25T00:28:17;100749.31;;;23.11;63.47
23427;BME280;41148;45.420;10.952;2022-08-25T00:30:44;100748.84;;;23.18;63.50
23427;BME280;41148;45.420;10.952;2022-08-25T00:33:12;100753.28;;;23.19;63.20
23427;BME280;41148;45.420;10.952;2022-08-25T00:35:40;100755.28;;;23.17;63.56
23427;BME280;41148;45.420;10.952;2022-08-25T00:38:09;100746.88;;;23.20;63.04
23427;BME280;41148;45.420;10.952;2022-08-25T00:40:37;100750.56;;;23.19;63.14
23427;BME280;41148;45.420;10.952;2022-08-25T00:43:05;100748.72;;;23.19;63.52
23427;BME280;41148;45.420;10.952;2022-08-25T00:45:33;100747.00;;;23.18;63.41
23427;BME280;41148;45.420;10.952;2022-08-25T00:48:00;100741.03;;;23.13;63.72
23427;BME280;41148;45.420;10.952;2022-08-25T00:50:29;100738.97;;;23.17;63.41
23427;BME280;41148;45.420;10.952;2022-08-25T00:52:58;100734.41;;;23.17;63.46
23427;BME280;41148;45.420;10.952;2022-08-25T00:55:29;100733.75;;;23.02;64.24
23427;BME280;41148;45.420;10.952;2022-08-25T00:57:59;100729.84;;;22.82;64.96
23427;BME280;41148;45.420;10.952;2022-08-25T01:00:30;100731.59;;;22.83;64.83
23427;BME280;41148;45.420;10.952;2022-08-25T01:02:58;100731.88;;;22.92;64.50
23427;BME280;41148;45.420;10.952;2022-08-25T01:05:28;100733.59;;;22.93;64.49
23427;BME280;41148;45.420;10.952;2022-08-25T01:07:56;100730.28;;;23.00;64.07
23427;BME280;41148;45.420;10.952;2022-08-25T01:10:33;100738.94;;;23.05;64.13
23427;BME280;41148;45.420;10.952;2022-08-25T01:13:05;100734.34;;;23.06;63.91
23427;BME280;41148;45.420;10.952;2022-08-25T01:15:43;100733.28;;;23.08;64.05
23427;BME280;41148;45.420;10.952;2022-08-25T01:18:11;100735.00;;;23.09;63.76
23427;BME280;41148;45.420;10.952;2022-08-25T01:20:38;100723.50;;;23.06;64.04
23427;BME280;41148;45.420;10.952;2022-08-25T01:23:06;100731.63;;;23.06;64.01
23427;BME280;41148;45.420;10.952;2022-08-25T01:28:20;100730.78;;;23.05;63.81
23427;BME280;41148;45.420;10.952;2022-08-25T01:30:47;100730.16;;;23.02;64.03
23427;BME280;41148;45.420;10.952;2022-08-25T01:33:16;100732.88;;;23.02;64.05
23427;BME280;41148;45.420;10.952;2022-08-25T01:35:44;100728.69;;;23.09;63.83
23427;BME280;41148;45.420;10.952;2022-08-25T01:38:11;100734.34;;;23.06;64.20
23427;BME280;41148;45.420;10.952;2022-08-25T01:40:39;100726.72;;;23.00;63.89
23427;BME280;41148;45.420;10.952;2022-08-25T01:45:36;100724.34;;;22.95;64.20
23427;BME280;41148;45.420;10.952;2022-08-25T01:48:04;100726.19;;;22.95;64.29
23427;BME280;41148;45.420;10.952;2022-08-25T01:50:32;100727.19;;;22.94;64.40
23427;BME280;41148;45.420;10.952;2022-08-25T01:53:05;100727.44;;;23.02;64.21
23427;BME280;41148;45.420;10.952;2022-08-25T01:55:33;100720.03;;;23.04;63.92
23427;BME280;41148;45.420;10.952;2022-08-25T01:58:18;100723.75;;;23.03;64.24
23427;BME280;41148;45.420;10.952;2022-08-25T02:00:47;100717.91;;;22.96;64.46
23427;BME280;41148;45.420;10.952;2022-08-25T02:03:14;100721.13;;;22.90;64.84
23427;BME280;41148;45.420;10.952;2022-08-25T02:05:45;100716.69;;;22.89;65.04
23427;BME280;41148;45.420;10.952;2022-08-25T02:08:14;100719.28;;;22.91;64.56
23427;BME280;41148;45.420;10.952;2022-08-25T02:10:42;100725.06;;;22.86;64.98
23427;BME280;41148;45.420;10.952;2022-08-25T02:13:09;100720.97;;;22.80;64.92
23427;BME280;41148;45.420;10.952;2022-08-25T02:15:40;100718.81;;;22.62;65.67
23427;BME280;41148;45.420;10.952;2022-08-25T02:18:08;100717.31;;;22.57;65.67
23427;BME280;41148;45.420;10.952;2022-08-25T02:20:36;100717.97;;;22.61;65.72
23427;BME280;41148;45.420;10.952;2022-08-25T02:23:04;100721.53;;;22.62;65.56
23427;BME280;41148;45.420;10.952;2022-08-25T02:25:32;100731.28;;;22.64;65.56
23427;BME280;41148;45.420;10.952;2022-08-25T02:28:00;100718.56;;;22.65;65.43
23427;BME280;41148;45.420;10.952;2022-08-25T02:30:27;100722.88;;;22.67;65.24
23427;BME280;41148;45.420;10.952;2022-08-25T02:32:55;100719.22;;;22.68;65.10
23427;BME280;41148;45.420;10.952;2022-08-25T02:35:23;100712.69;;;22.71;64.83
23427;BME280;41148;45.420;10.952;2022-08-25T02:37:51;100721.94;;;22.68;64.92
23427;BME280;41148;45.420;10.952;2022-08-25T02:40:20;100720.78;;;22.60;65.70
23427;BME280;41148;45.420;10.952;2022-08-25T02:42:48;100720.03;;;22.57;65.93
23427;BME280;41148;45.420;10.952;2022-08-25T02:45:16;100721.00;;;22.56;65.84
23427;BME280;41148;45.420;10.952;2022-08-25T02:47:44;100713.84;;;22.55;65.49
23427;BME280;41148;45.420;10.952;2022-08-25T02:50:12;100712.00;;;22.56;65.90
23427;BME280;41148;45.420;10.952;2022-08-25T02:52:39;100713.72;;;22.57;65.61
23427;BME280;41148;45.420;10.952;2022-08-25T02:55:08;100710.16;;;22.56;65.77
23427;BME280;41148;45.420;10.952;2022-08-25T02:57:36;100713.56;;;22.47;66.41
23427;BME280;41148;45.420;10.952;2022-08-25T03:00:04;100718.78;;;22.50;66.00
23427;BME280;41148;45.420;10.952;2022-08-25T03:02:32;100715.09;;;22.51;66.02
23427;BME280;41148;45.420;10.952;2022-08-25T03:04:59;100720.66;;;22.50;66.01
23427;BME280;41148;45.420;10.952;2022-08-25T03:07:27;100716.78;;;22.41;66.43
23427;BME280;41148;45.420;10.952;2022-08-25T03:09:59;100716.38;;;22.35;66.59
23427;BME280;41148;45.420;10.952;2022-08-25T03:12:30;100716.75;;;22.30;66.78
23427;BME280;41148;45.420;10.952;2022-08-25T03:14:58;100718.00;;;22.37;66.38
23427;BME280;41148;45.420;10.952;2022-08-25T03:17:27;100717.53;;;22.43;65.92
23427;BME280;41148;45.420;10.952;2022-08-25T03:19:56;100709.88;;;22.48;65.77
23427;BME280;41148;45.420;10.952;2022-08-25T03:22:23;100714.22;;;22.51;65.62
23427;BME280;41148;45.420;10.952;2022-08-25T03:24:53;100704.22;;;22.51;65.54
23427;BME280;41148;45.420;10.952;2022-08-25T03:27:40;100708.81;;;22.51;65.62
23427;BME280;41148;45.420;10.952;2022-08-25T03:30:08;100711.13;;;22.44;65.75
23427;BME280;41148;45.420;10.952;2022-08-25T03:32:35;100705.66;;;22.33;66.06
23427;BME280;41148;45.420;10.952;2022-08-25T03:35:03;100709.22;;;22.34;65.88
23427;BME280;41148;45.420;10.952;2022-08-25T03:37:30;100700.72;;;22.38;65.87
23427;BME280;41148;45.420;10.952;2022-08-25T03:39:58;100707.78;;;22.41;65.51
23427;BME280;41148;45.420;10.952;2022-08-25T03:42:25;100707.16;;;22.48;64.92
23427;BME280;41148;45.420;10.952;2022-08-25T03:44:52;100704.22;;;22.51;64.71
23427;BME280;41148;45.420;10.952;2022-08-25T03:47:20;100698.28;;;22.46;65.54
23427;BME280;41148;45.420;10.952;2022-08-25T03:49:51;100696.53;;;22.34;65.80
23427;BME280;41148;45.420;10.952;2022-08-25T03:52:18;100703.56;;;22.37;65.84
23427;BME280;41148;45.420;10.952;2022-08-25T03:54:45;100697.38;;;22.35;65.55
23427;BME280;41148;45.420;10.952;2022-08-25T03:57:12;100694.53;;;22.36;65.61
23427;BME280;41148;45.420;10.952;2022-08-25T03:59:40;100696.28;;;22.37;65.41
23427;BME280;41148;45.420;10.952;2022-08-25T04:02:07;100704.28;;;22.39;65.37
23427;BME280;41148;45.420;10.952;2022-08-25T04:04:35;100695.06;;;22.41;65.27
23427;BME280;41148;45.420;10.952;2022-08-25T04:07:02;100695.69;;;22.45;64.94
23427;BME280;41148;45.420;10.952;2022-08-25T04:09:32;100698.41;;;22.45;65.06
23427;BME280;41148;45.420;10.952;2022-08-25T04:12:03;100690.00;;;22.48;64.79
23427;BME280;41148;45.420;10.952;2022-08-25T04:14:30;100698.06;;;22.49;64.56
23427;BME280;41148;45.420;10.952;2022-08-25T04:16:57;100691.78;;;22.49;64.73
23427;BME280;41148;45.420;10.952;2022-08-25T04:19:25;100687.28;;;22.48;64.93
23427;BME280;41148;45.420;10.952;2022-08-25T04:21:52;100688.78;;;22.41;65.55
23427;BME280;41148;45.420;10.952;2022-08-25T04:24:23;100693.34;;;22.40;65.66
23427;BME280;41148;45.420;10.952;2022-08-25T04:26:50;100694.66;;;22.35;65.83
23427;BME280;41148;45.420;10.952;2022-08-25T04:29:19;100693.88;;;22.21;66.50
23427;BME280;41148;45.420;10.952;2022-08-25T04:31:50;100689.53;;;22.19;66.70
23427;BME280;41148;45.420;10.952;2022-08-25T04:34:17;100684.66;;;22.24;66.72
23427;BME280;41148;45.420;10.952;2022-08-25T04:37:00;100684.53;;;22.25;66.48
23427;BME280;41148;45.420;10.952;2022-08-25T04:39:29;100690.69;;;22.27;67.08
23427;BME280;41148;45.420;10.952;2022-08-25T04:41:56;100686.91;;;22.30;66.93
23427;BME280;41148;45.420;10.952;2022-08-25T04:44:23;100697.75;;;22.30;66.83
23427;BME280;41148;45.420;10.952;2022-08-25T04:46:51;100688.84;;;22.28;66.76
23427;BME280;41148;45.420;10.952;2022-08-25T04:49:18;100695.25;;;22.27;66.81
23427;BME280;41148;45.420;10.952;2022-08-25T04:51:46;100698.09;;;22.25;66.69
23427;BME280;41148;45.420;10.952;2022-08-25T04:54:14;100703.63;;;22.24;67.16
23427;BME280;41148;45.420;10.952;2022-08-25T04:56:48;100701.00;;;22.11;68.24
23427;BME280;41148;45.420;10.952;2022-08-25T04:59:20;100701.00;;;22.11;68.40
23427;BME280;41148;45.420;10.952;2022-08-25T05:01:47;100709.66;;;22.16;67.93
23427;BME280;41148;45.420;10.952;2022-08-25T05:04:19;100709.53;;;22.18;67.79
23427;BME280;41148;45.420;10.952;2022-08-25T05:06:55;100702.78;;;22.23;67.68
23427;BME280;41148;45.420;10.952;2022-08-25T05:09:22;100699.59;;;22.30;67.68
23427;BME280;41148;45.420;10.952;2022-08-25T05:11:51;100694.78;;;22.33;67.54
23427;BME280;41148;45.420;10.952;2022-08-25T05:14:19;100694.53;;;22.36;67.22
23427;BME280;41148;45.420;10.952;2022-08-25T05:16:53;100686.06;;;22.41;67.36
23427;BME280;41148;45.420;10.952;2022-08-25T05:19:20;100688.78;;;22.41;67.87
23427;BME280;41148;45.420;10.952;2022-08-25T05:21:50;100691.72;;;22.38;67.92
23427;BME280;41148;45.420;10.952;2022-08-25T05:24:18;100706.53;;;22.45;67.98
23427;BME280;41148;45.420;10.952;2022-08-25T05:26:46;100700.00;;;22.47;67.93
23427;BME280;41148;45.420;10.952;2022-08-25T05:29:13;100688.78;;;22.41;68.23
23427;BME280;41148;45.420;10.952;2022-08-25T05:31:41;100694.56;;;22.47;68.58
23427;BME280;41148;45.420;10.952;2022-08-25T05:34:16;100683.25;;;22.53;68.00
23427;BME280;41148;45.420;10.952;2022-08-25T05:36:45;100684.63;;;22.59;67.71
23427;BME280;41148;45.420;10.952;2022-08-25T05:39:12;100687.97;;;22.63;67.76
23427;BME280;41148;45.420;10.952;2022-08-25T05:41:40;100693.41;;;22.63;68.38
23427;BME280;41148;45.420;10.952;2022-08-25T05:44:08;100698.06;;;22.49;68.52
23427;BME280;41148;45.420;10.952;2022-08-25T05:46:36;100703.50;;;22.49;68.80
23427;BME280;41148;45.420;10.952;2022-08-25T05:49:03;100695.69;;;22.45;69.39
23427;BME280;41148;45.420;10.952;2022-08-25T05:51:30;100690.97;;;22.36;70.15
23427;BME280;41148;45.420;10.952;2022-08-25T05:53:58;100694.44;;;22.38;70.17
23427;BME280;41148;45.420;10.952;2022-08-25T05:56:25;100694.09;;;22.42;70.33
23427;BME280;41148;45.420;10.952;2022-08-25T05:58:52;100690.28;;;22.56;69.79
23427;BME280;41148;45.420;10.952;2022-08-25T06:01:23;100684.88;;;22.67;69.38
23427;BME280;41148;45.420;10.952;2022-08-25T06:04:11;100677.72;;;22.77;69.17
23427;BME280;41148;45.420;10.952;2022-08-25T06:06:39;100681.38;;;22.89;68.92
23427;BME280;41148;45.420;10.952;2022-08-25T06:09:07;100680.88;;;22.95;68.28
23427;BME280;41148;45.420;10.952;2022-08-25T06:11:36;100679.78;;;23.09;67.81
23427;BME280;41148;45.420;10.952;2022-08-25T06:14:06;100672.13;;;23.14;67.55
23427;BME280;41148;45.420;10.952;2022-08-25T06:16:34;100676.31;;;23.29;66.48
23427;BME280;41148;45.420;10.952;2022-08-25T06:19:02;100681.25;;;23.35;66.98
23427;BME280;41148;45.420;10.952;2022-08-25T06:21:30;100681.75;;;23.40;63.15
23427;BME280;41148;45.420;10.952;2022-08-25T06:23:58;100677.03;;;23.42;61.87
23427;BME280;41148;45.420;10.952;2022-08-25T06:26:26;100670.25;;;23.48;61.26
23427;BME280;41148;45.420;10.952;2022-08-25T06:28:54;100667.66;;;23.47;61.00
23427;BME280;41148;45.420;10.952;2022-08-25T06:31:21;100664.41;;;23.53;61.52
23427;BME280;41148;45.420;10.952;2022-08-25T06:33:49;100663.31;;;23.66;61.33
23427;BME280;41148;45.420;10.952;2022-08-25T06:36:17;100660.03;;;23.95;59.84
23427;BME280;41148;45.420;10.952;2022-08-25T06:38:45;100656.97;;;24.09;60.08
23427;BME280;41148;45.420;10.952;2022-08-25T06:41:13;100659.66;;;24.20;59.31
23427;BME280;41148;45.420;10.952;2022-08-25T06:43:42;100661.19;;;24.13;58.16
23427;BME280;41148;45.420;10.952;2022-08-25T06:46:17;100661.56;;;24.09;58.24
23427;BME280;41148;45.420;10.952;2022-08-25T06:48:46;100661.69;;;24.07;57.67
23427;BME280;41148;45.420;10.952;2022-08-25T06:51:15;100658.41;;;24.24;58.27
23427;BME280;41148;45.420;10.952;2022-08-25T06:53:43;100664.75;;;24.46;57.25
23427;BME280;41148;45.420;10.952;2022-08-25T06:56:11;100664.81;;;24.55;56.85
23427;BME280;41148;45.420;10.952;2022-08-25T06:58:38;100654.78;;;24.56;56.59
23427;BME280;41148;45.420;10.952;2022-08-25T07:01:09;100648.75;;;24.52;56.64
23427;BME280;41148;45.420;10.952;2022-08-25T07:03:46;100659.22;;;24.57;56.28
23427;BME280;41148;45.420;10.952;2022-08-25T07:06:14;100658.50;;;24.76;55.17
23427;BME280;41148;45.420;10.952;2022-08-25T07:08:45;100656.34;;;24.79;56.10
23427;BME280;41148;45.420;10.952;2022-08-25T07:11:14;100654.28;;;24.93;55.46
23427;BME280;41148;45.420;10.952;2022-08-25T07:13:43;100648.84;;;24.93;55.24
23427;BME280;41148;45.420;10.952;2022-08-25T07:16:11;100645.91;;;25.05;55.32
23427;BME280;41148;45.420;10.952;2022-08-25T07:18:39;100643.22;;;25.15;55.17
23427;BME280;41148;45.420;10.952;2022-08-25T07:21:07;100637.94;;;25.23;55.13
23427;BME280;41148;45.420;10.952;2022-08-25T07:23:35;100645.84;;;25.26;54.57
23427;BME280;41148;45.420;10.952;2022-08-25T07:26:07;100639.28;;;25.38;53.75
23427;BME280;41148;45.420;10.952;2022-08-25T07:28:47;100641.31;;;25.46;53.66
23427;BME280;41148;45.420;10.952;2022-08-25T07:31:16;100632.84;;;25.49;53.62
23427;BME280;41148;45.420;10.952;2022-08-25T07:33:43;100634.88;;;25.66;53.20
23427;BME280;41148;45.420;10.952;2022-08-25T07:36:33;100636.94;;;25.74;53.07
23427;BME280;41148;45.420;10.952;2022-08-25T07:39:00;100635.31;;;25.62;52.13
23427;BME280;41148;45.420;10.952;2022-08-25T07:41:35;100629.28;;;25.58;52.23
23427;BME280;41148;45.420;10.952;2022-08-25T07:44:03;100630.88;;;25.61;52.30
23427;BME280;41148;45.420;10.952;2022-08-25T07:46:30;100634.50;;;25.71;51.60
23427;BME280;41148;45.420;10.952;2022-08-25T07:49:00;100639.97;;;25.81;51.20
23427;BME280;41148;45.420;10.952;2022-08-25T07:51:27;100638.66;;;25.75;51.31
23427;BME280;41148;45.420;10.952;2022-08-25T07:53:55;100634.22;;;25.84;51.47
23427;BME280;41148;45.420;10.952;2022-08-25T07:56:23;100634.66;;;25.99;51.12
23427;BME280;41148;45.420;10.952;2022-08-25T07:58:51;100638.97;;;26.11;51.04
23427;BME280;41148;45.420;10.952;2022-08-25T08:01:21;100636.09;;;26.12;50.94
23427;BME280;41148;45.420;10.952;2022-08-25T08:03:49;100645.84;;;26.24;51.26
23427;BME280;41148;45.420;10.952;2022-08-25T08:06:19;100644.28;;;26.32;51.12
23427;BME280;41148;45.420;10.952;2022-08-25T08:08:47;100638.28;;;26.38;50.71
23427;BME280;41148;45.420;10.952;2022-08-25T08:11:20;100641.41;;;26.43;50.49
23427;BME280;41148;45.420;10.952;2022-08-25T08:13:50;100638.13;;;26.39;50.91
23427;BME280;41148;45.420;10.952;2022-08-25T08:16:18;100641.28;;;26.54;50.55
23427;BME280;41148;45.420;10.952;2022-08-25T08:18:46;100633.63;;;26.58;50.00
23427;BME280;41148;45.420;10.952;2022-08-25T08:21:15;100633.31;;;26.70;50.55
23427;BME280;41148;45.420;10.952;2022-08-25T08:23:46;100631.25;;;26.82;49.30
23427;BME280;41148;45.420;10.952;2022-08-25T08:26:15;100630.84;;;26.77;49.85
23427;BME280;41148;45.420;10.952;2022-08-25T08:28:42;100631.63;;;26.97;48.89
23427;BME280;41148;45.420;10.952;2022-08-25T08:31:18;100633.06;;;27.01;49.06
23427;BME280;41148;45.420;10.952;2022-08-25T08:33:48;100632.34;;;27.08;49.99
23427;BME280;41148;45.420;10.952;2022-08-25T08:36:16;100629.13;;;27.23;50.11
23427;BME280;41148;45.420;10.952;2022-08-25T08:38:44;100633.00;;;27.75;48.95
23427;BME280;41148;45.420;10.952;2022-08-25T08:41:33;100636.19;;;28.24;47.88
23427;BME280;41148;45.420;10.952;2022-08-25T08:44:44;100631.41;;;28.26;47.94
23427;BME280;41148;45.420;10.952;2022-08-25T08:49:57;100624.22;;;28.25;47.02
23427;BME280;41148;45.420;10.952;2022-08-25T08:52:39;100621.81;;;28.22;47.70
23427;BME280;41148;45.420;10.952;2022-08-25T08:55:10;100625.25;;;28.42;47.82
23427;BME280;41148;45.420;10.952;2022-08-25T08:57:42;100628.91;;;28.50;47.58
23427;BME280;41148;45.420;10.952;2022-08-25T09:00:11;100623.97;;;28.54;47.26
23427;BME280;41148;45.420;10.952;2022-08-25T09:02:49;100626.44;;;28.65;46.59
23427;BME280;41148;45.420;10.952;2022-08-25T09:05:19;100613.25;;;29.29;44.54
23427;BME280;41148;45.420;10.952;2022-08-25T09:07:53;100605.44;;;31.21;40.43
23427;BME280;41148;45.420;10.952;2022-08-25T09:10:33;100601.41;;;33.58;35.84
23427;BME280;41148;45.420;10.952;2022-08-25T09:13:10;100601.94;;;34.47;34.04
23427;BME280;41148;45.420;10.952;2022-08-25T09:15:53;100589.16;;;33.61;35.64
23427;BME280;41148;45.420;10.952;2022-08-25T09:19:02;100587.53;;;31.87;38.11
23427;BME280;41148;45.420;10.952;2022-08-25T09:21:40;100589.91;;;32.51;37.56
23427;BME280;41148;45.420;10.952;2022-08-25T09:26:44;100590.25;;;33.15;35.90
23427;BME280;41148;45.420;10.952;2022-08-25T09:29:19;100584.66;;;34.73;32.72
23427;BME280;41148;45.420;10.952;2022-08-25T09:31:48;100591.38;;;34.57;32.26
23427;BME280;41148;45.420;10.952;2022-08-25T09:34:17;100584.56;;;32.87;35.62
23427;BME280;41148;45.420;10.952;2022-08-25T09:36:44;100582.53;;;31.29;38.44
23427;BME280;41148;45.420;10.952;2022-08-25T09:39:14;100585.97;;;30.59;40.26
23427;BME280;41148;45.420;10.952;2022-08-25T09:41:47;100588.75;;;30.35;41.65
23427;BME280;41148;45.420;10.952;2022-08-25T09:44:22;100590.28;;;30.05;42.48
23427;BME280;41148;45.420;10.952;2022-08-25T09:49:46;100591.81;;;29.83;43.08
23427;BME280;41148;45.420;10.952;2022-08-25T09:52:23;100578.94;;;29.75;43.05
23427;BME280;41148;45.420;10.952;2022-08-25T09:54:53;100575.66;;;29.80;43.17
23427;BME280;41148;45.420;10.952;2022-08-25T09:59:56;100582.88;;;29.81;43.29
23427;BME280;41148;45.420;10.952;2022-08-25T10:02:35;100571.72;;;29.66;42.76
23427;BME280;41148;45.420;10.952;2022-08-25T10:05:17;100568.47;;;29.79;41.93
23427;BME280;41148;45.420;10.952;2022-08-25T10:07:50;100575.59;;;29.47;41.05
23427;BME280;41148;45.420;10.952;2022-08-25T10:10:27;100571.44;;;29.35;41.65
23427;BME280;41148;45.420;10.952;2022-08-25T10:12:58;100566.81;;;29.35;42.06
23427;BME280;41148;45.420;10.952;2022-08-25T10:15:35;100570.44;;;29.44;42.09
23427;BME280;41148;45.420;10.952;2022-08-25T10:18:20;100571.09;;;29.38;42.79
23427;BME280;41148;45.420;10.952;2022-08-25T10:23:27;100566.38;;;29.48;42.38
23427;BME280;41148;45.420;10.952;2022-08-25T10:25:58;100569.59;;;29.44;41.64
23427;BME280;41148;45.420;10.952;2022-08-25T10:28:40;100561.00;;;29.39;41.04
23427;BME280;41148;45.420;10.952;2022-08-25T10:31:21;100565.25;;;29.33;42.35
23427;BME280;41148;45.420;10.952;2022-08-25T10:34:02;100565.59;;;29.30;42.42
23427;BME280;41148;45.420;10.952;2022-08-25T10:36:38;100560.97;;;29.30;42.72
23427;BME280;41148;45.420;10.952;2022-08-25T10:49:55;100537.66;;;29.34;42.17
23427;BME280;41148;45.420;10.952;2022-08-25T10:52:31;100533.91;;;29.35;42.45
23427;BME280;41148;45.420;10.952;2022-08-25T10:55:07;100536.44;;;29.29;42.40
23427;BME280;41148;45.420;10.952;2022-08-25T10:57:44;100540.91;;;29.30;42.90
23427;BME280;41148;45.420;10.952;2022-08-25T11:00:20;100540.56;;;29.33;42.18
23427;BME280;41148;45.420;10.952;2022-08-25T11:08:05;100533.03;;;29.43;42.73
23427;BME280;41148;45.420;10.952;2022-08-25T11:10:37;100520.56;;;29.49;42.77
23427;BME280;41148;45.420;10.952;2022-08-25T11:13:16;100518.50;;;29.51;42.24
23427;BME280;41148;45.420;10.952;2022-08-25T11:15:54;100509.94;;;29.54;42.56
23427;BME280;41148;45.420;10.952;2022-08-25T11:18:50;100512.81;;;29.44;42.64
23427;BME280;41148;45.420;10.952;2022-08-25T11:21:22;100511.47;;;29.48;42.89
23427;BME280;41148;45.420;10.952;2022-08-25T11:23:57;100513.00;;;29.51;42.77
23427;BME280;41148;45.420;10.952;2022-08-25T11:26:32;100511.13;;;29.51;42.11
23427;BME280;41148;45.420;10.952;2022-08-25T11:29:13;100505.25;;;29.46;41.68
23427;BME280;41148;45.420;10.952;2022-08-25T11:31:43;100488.13;;;29.52;41.13
23427;BME280;41148;45.420;10.952;2022-08-25T11:34:19;100498.63;;;29.57;40.71
23427;BME280;41148;45.420;10.952;2022-08-25T11:36:48;100490.88;;;29.52;41.84
23427;BME280;41148;45.420;10.952;2022-08-25T11:39:23;100496.19;;;29.46;41.67
23427;BME280;41148;45.420;10.952;2022-08-25T11:44:46;100479.91;;;29.52;40.45
23427;BME280;41148;45.420;10.952;2022-08-25T11:47:30;100480.38;;;29.48;41.45
23427;BME280;41148;45.420;10.952;2022-08-25T11:50:24;100484.84;;;29.41;40.32
23427;BME280;41148;45.420;10.952;2022-08-25T11:52:55;100484.84;;;29.41;40.91
23427;BME280;41148;45.420;10.952;2022-08-25T11:57:51;100470.66;;;29.53;40.11
23427;BME280;41148;45.420;10.952;2022-08-25T12:00:39;100472.31;;;29.38;40.54
23427;BME280;41148;45.420;10.952;2022-08-25T12:12:01;100468.25;;;29.58;41.09
23427;BME280;41148;45.420;10.952;2022-08-25T12:37:29;100457.59;;;29.88;42.21
23427;BME280;41148;45.420;10.952;2022-08-25T12:39:58;100450.56;;;29.85;42.23
23427;BME280;41148;45.420;10.952;2022-08-25T12:42:28;100446.44;;;29.81;42.15
23427;BME280;41148;45.420;10.952;2022-08-25T12:47:33;100447.16;;;29.83;42.88
23427;BME280;41148;45.420;10.952;2022-08-25T12:52:47;100436.81;;;29.93;40.95
23427;BME280;41148;45.420;10.952;2022-08-25T12:55:15;100438.72;;;29.93;41.92
23427;BME280;41148;45.420;10.952;2022-08-25T12:57:44;100444.53;;;29.90;42.20
23427;BME280;41148;45.420;10.952;2022-08-25T13:08:37;100436.13;;;30.00;41.20
23427;BME280;41148;45.420;10.952;2022-08-25T13:11:14;100434.75;;;29.96;41.50
23427;BME280;41148;45.420;10.952;2022-08-25T13:13:59;100441.97;;;29.97;42.23
23427;BME280;41148;45.420;10.952;2022-08-25T13:16:29;100434.75;;;29.96;42.19
23427;BME280;41148;45.420;10.952;2022-08-25T13:18:57;100430.78;;;29.98;42.46
23427;BME280;41148;45.420;10.952;2022-08-25T13:21:40;100420.66;;;29.99;42.36
23427;BME280;41148;45.420;10.952;2022-08-25T13:24:10;100424.63;;;29.96;41.48
23427;BME280;41148;45.420;10.952;2022-08-25T13:26:40;100423.44;;;29.90;42.20
23427;BME280;41148;45.420;10.952;2022-08-25T13:29:17;100425.47;;;29.97;42.62
23427;BME280;41148;45.420;10.952;2022-08-25T13:32:01;100428.91;;;29.99;42.14
23427;BME280;41148;45.420;10.952;2022-08-25T13:34:36;100423.22;;;30.00;41.82
23427;BME280;41148;45.420;10.952;2022-08-25T13:37:09;100411.75;;;30.05;40.75
23427;BME280;41148;45.420;10.952;2022-08-25T13:42:38;100415.34;;;30.05;41.82
23427;BME280;41148;45.420;10.952;2022-08-25T13:45:13;100407.97;;;30.06;40.11
23427;BME280;41148;45.420;10.952;2022-08-25T13:47:41;100406.75;;;30.00;40.97
23427;BME280;41148;45.420;10.952;2022-08-25T13:52:50;100401.97;;;30.02;41.63
23427;BME280;41148;45.420;10.952;2022-08-25T13:55:23;100395.63;;;30.02;40.85
23427;BME280;41148;45.420;10.952;2022-08-25T13:57:55;100397.16;;;30.04;41.82
23427;BME280;41148;45.420;10.952;2022-08-25T14:00:31;100398.50;;;30.00;41.75
23427;BME280;41148;45.420;10.952;2022-08-25T14:03:00;100391.13;;;30.01;41.79
23427;BME280;41148;45.420;10.952;2022-08-25T14:05:41;100393.72;;;30.02;41.56
23427;BME280;41148;45.420;10.952;2022-08-25T14:11:27;100388.94;;;29.96;41.41
23427;BME280;41148;45.420;10.952;2022-08-25T14:14:00;100397.84;;;29.98;41.88
23427;BME280;41148;45.420;10.952;2022-08-25T14:16:29;100392.88;;;30.02;40.50
23427;BME280;41148;45.420;10.952;2022-08-25T14:18:58;100389.78;;;29.97;40.65
23427;BME280;41148;45.420;10.952;2022-08-25T14:21:29;100396.13;;;29.97;41.43
23427;BME280;41148;45.420;10.952;2022-08-25T14:23:56;100394.06;;;29.99;41.68
23427;BME280;41148;45.420;10.952;2022-08-25T14:26:25;100385.81;;;29.99;41.49
23427;BME280;41148;45.420;10.952;2022-08-25T14:28:53;100393.19;;;29.99;41.60
23427;BME280;41148;45.420;10.952;2022-08-25T14:31:23;100385.16;;;29.97;41.47
23427;BME280;41148;45.420;10.952;2022-08-25T14:33:53;100388.56;;;29.99;41.82